Time;durP1;ratioP1;P1;durP2;ratioP2;P2;SDS_P1;SDS_P2;PMS_P1;PMS_P2;Temp;Humidity;BMP_temperature;BMP_pressure;BME280_temperature;BME280_humidity;BME280_pressure;Samples;Min_cycle;Max_cycle;Signal;HPM_P1;HPM_P2
2023/07/26 00:00:26;;;;;;;15.27;4.37;;;;;;;11.76;100.00;100181.94;4993917;28;20045;-82
2023/07/26 00:02:51;;;;;;;15.50;4.07;;;;;;;11.65;100.00;100166.34;4997091;28;20420;-85
2023/07/26 00:05:17;;;;;;;12.27;3.50;;;;;;;11.61;100.00;100154.34;4982094;28;20026;-84
2023/07/26 00:07:42;;;;;;;13.23;3.17;;;;;;;11.68;100.00;100167.81;4996783;28;20412;-86
2023/07/26 00:10:08;;;;;;;8.30;2.67;;;;;;;11.67;100.00;100161.66;4979481;28;20089;-86
2023/07/26 00:12:33;;;;;;;10.77;2.92;;;;;;;11.64;100.00;100154.00;4979347;28;20472;-86
2023/07/26 00:14:59;;;;;;;6.80;2.40;;;;;;;11.67;100.00;100172.34;4977689;28;20037;-86
2023/07/26 00:17:24;;;;;;;8.07;2.90;;;;;;;11.63;100.00;100165.69;4993432;28;20041;-86
2023/07/26 00:19:49;;;;;;;12.10;3.30;;;;;;;11.62;100.00;100161.38;5018355;28;20312;-86
2023/07/26 00:22:15;;;;;;;9.40;2.67;;;;;;;11.68;100.00;100171.31;4978285;28;20493;-86
2023/07/26 00:24:40;;;;;;;17.13;3.87;;;;;;;11.67;100.00;100172.34;5017477;28;20022;-86
2023/07/26 00:27:06;;;;;;;15.60;3.50;;;;;;;11.62;100.00;100172.06;5018537;28;20740;-86
2023/07/26 00:29:31;;;;;;;6.40;2.20;;;;;;;11.54;100.00;100174.81;5009844;28;20030;-85
2023/07/26 00:31:56;;;;;;;8.17;2.53;;;;;;;11.62;100.00;100175.56;4987042;28;20045;-84
2023/07/26 00:34:22;;;;;;;8.97;3.50;;;;;;;11.61;100.00;100165.03;5004338;28;20067;-85
2023/07/26 00:36:47;;;;;;;8.00;2.63;;;;;;;11.61;100.00;100168.56;5004298;28;20509;-85
2023/07/26 00:39:13;;;;;;;8.60;2.40;;;;;;;11.79;100.00;100188.75;5004308;28;20026;-85
2023/07/26 00:41:39;;;;;;;10.85;3.35;;;;;;;11.78;100.00;100171.06;5008306;28;20052;-86
2023/07/26 00:44:04;;;;;;;5.33;2.50;;;;;;;11.92;100.00;100177.47;4995260;28;20026;-86
2023/07/26 00:46:30;;;;;;;9.85;2.85;;;;;;;12.03;100.00;100182.31;5005514;28;20062;-85
2023/07/26 00:48:57;;;;;;;9.25;2.55;;;;;;;12.07;100.00;100170.25;5008606;28;20026;-86
2023/07/26 00:51:23;;;;;;;7.40;3.47;;;;;;;12.10;100.00;100169.88;5010735;28;20030;-86
2023/07/26 00:53:49;;;;;;;5.40;1.90;;;;;;;12.18;100.00;100164.41;5000331;28;20026;-86
2023/07/26 00:56:15;;;;;;;9.63;2.40;;;;;;;12.21;100.00;100164.03;4992972;28;20132;-86
2023/07/26 00:58:40;;;;;;;9.07;5.53;;;;;;;12.20;100.00;100154.38;5017087;28;20014;-86
2023/07/26 01:01:06;;;;;;;5.82;2.60;;;;;;;12.22;100.00;100143.44;4992758;28;20030;-86
2023/07/26 01:03:31;;;;;;;7.07;2.57;;;;;;;12.24;100.00;100146.78;5008648;28;20068;-85
2023/07/26 01:06:22;;;;;;;8.90;2.63;;;;;;;12.20;100.00;100142.84;4976288;28;20715;-84
2023/07/26 01:09:18;;;;;;;6.20;1.80;;;;;;;12.24;100.00;100150.31;4992341;28;20034;-85
2023/07/26 01:12:06;;;;;;;8.63;3.03;;;;;;;12.20;100.00;100154.38;4991384;28;20042;-84
2023/07/26 01:14:53;;;;;;;14.80;3.22;;;;;;;12.16;100.00;100152.25;4985917;28;20172;-84
2023/07/26 01:17:19;;;;;;;7.10;2.85;;;;;;;12.19;100.00;100158.03;4984258;28;20038;-85
2023/07/26 01:19:44;;;;;;;11.73;3.80;;;;;;;12.12;100.00;100156.31;5007328;28;20106;-84
2023/07/26 01:22:09;;;;;;;8.90;2.13;;;;;;;12.11;100.00;100163.50;4989022;28;20073;-85
2023/07/26 01:24:35;;;;;;;10.13;2.80;;;;;;;12.09;100.00;100165.53;5007540;28;20030;-85
2023/07/26 01:27:00;;;;;;;10.03;3.10;;;;;;;12.11;100.00;100155.50;4977373;28;20042;-86
2023/07/26 01:29:26;;;;;;;12.57;3.35;;;;;;;12.09;100.00;100160.19;4991309;28;20026;-85
2023/07/26 01:31:51;;;;;;;8.17;2.73;;;;;;;12.16;100.00;100177.16;5006988;28;20042;-84
2023/07/26 01:34:18;;;;;;;10.15;2.75;;;;;;;12.24;100.00;100186.91;5010191;28;20021;-83
2023/07/26 01:36:45;;;;;;;8.90;2.42;;;;;;;12.19;100.00;100175.94;4986254;28;20042;-83
2023/07/26 01:39:11;;;;;;;5.72;2.20;;;;;;;12.21;100.00;100169.41;4994660;28;20519;-85
2023/07/26 01:41:39;;;;;;;8.15;2.35;;;;;;;12.24;100.00;100155.66;4995953;28;20053;-86
2023/07/26 01:44:04;;;;;;;10.05;3.03;;;;;;;12.38;100.00;100155.78;4997527;28;20018;-86
2023/07/26 01:46:29;;;;;;;11.87;2.57;;;;;;;12.29;100.00;100140.84;5008192;28;20030;-85
2023/07/26 01:48:57;;;;;;;7.13;2.53;;;;;;;12.32;100.00;100145.84;4994250;28;20277;-85
2023/07/26 01:51:22;;;;;;;11.43;2.40;;;;;;;12.44;100.00;100147.00;4977955;28;20041;-85
2023/07/26 01:53:47;;;;;;;9.07;2.87;;;;;;;12.44;100.00;100144.34;4994050;28;20516;-85
2023/07/26 01:56:15;;;;;;;10.07;2.70;;;;;;;12.41;100.00;100150.09;5004970;28;20064;-85
2023/07/26 01:58:40;;;;;;;8.50;3.17;;;;;;;12.40;100.00;100153.75;4994992;28;20050;-84
2023/07/26 02:01:06;;;;;;;7.03;2.40;;;;;;;12.38;100.00;100158.47;4978359;28;20093;-85
2023/07/26 02:03:31;;;;;;;7.17;3.57;;;;;;;12.42;100.00;100163.25;5017161;28;20500;-86
2023/07/26 02:05:56;;;;;;;8.50;2.23;;;;;;;12.39;100.00;100165.50;5004054;28;20036;-84
2023/07/26 02:08:22;;;;;;;16.40;3.72;;;;;;;12.32;100.00;100172.63;4985564;28;20092;-85
2023/07/26 02:10:48;;;;;;;8.77;2.50;;;;;;;12.31;100.00;100187.81;5005538;28;20462;-85
2023/07/26 02:13:13;;;;;;;8.60;2.87;;;;;;;12.14;100.00;100175.69;5011035;28;20046;-85
2023/07/26 02:15:39;;;;;;;6.00;2.50;;;;;;;12.17;100.00;100199.38;5004507;28;20034;-85
2023/07/26 02:18:05;;;;;;;8.00;3.30;;;;;;;12.15;100.00;100196.91;4996770;28;20480;-85
2023/07/26 02:20:31;;;;;;;10.48;2.90;;;;;;;12.00;100.00;100202.25;4996610;28;20408;-85
2023/07/26 02:22:57;;;;;;;14.90;2.95;;;;;;;11.97;100.00;100210.66;4994886;28;20018;-86
2023/07/26 02:25:23;;;;;;;6.65;2.88;;;;;;;11.97;100.00;100216.00;4978321;28;20045;-84
2023/07/26 02:27:48;;;;;;;10.17;3.00;;;;;;;11.94;100.00;100212.88;5011035;28;20034;-84
2023/07/26 02:30:13;;;;;;;9.80;2.97;;;;;;;11.99;100.00;100223.88;4995768;28;20045;-84
2023/07/26 02:32:39;;;;;;;4.90;2.97;;;;;;;11.98;100.00;100224.88;5009989;28;20030;-84
2023/07/26 02:35:05;;;;;;;6.90;2.77;;;;;;;11.92;100.00;100214.91;4994779;28;20291;-85
2023/07/26 02:37:30;;;;;;;11.48;3.63;;;;;;;11.91;100.00;100229.28;5010811;28;20070;-85
2023/07/26 02:39:55;;;;;;;7.63;3.00;;;;;;;11.90;100.00;100233.81;4997721;28;20037;-85
2023/07/26 02:42:21;;;;;;;11.23;3.30;;;;;;;11.78;100.00;100228.06;4978164;28;20046;-85
2023/07/26 02:44:49;;;;;;;7.20;3.20;;;;;;;11.78;100.00;100225.38;4978117;28;20034;-85
2023/07/26 02:47:15;;;;;;;8.27;2.80;;;;;;;11.75;100.00;100241.81;5007299;28;20388;-84
2023/07/26 02:49:40;;;;;;;8.57;3.90;;;;;;;11.75;100.00;100246.31;5006449;28;20034;-86
2023/07/26 02:52:06;;;;;;;10.83;2.90;;;;;;;11.79;100.00;100243.06;4977505;28;20026;-83
2023/07/26 02:54:31;;;;;;;9.37;3.27;;;;;;;11.85;100.00;100257.59;4996825;28;20034;-84
2023/07/26 02:56:56;;;;;;;6.60;3.07;;;;;;;11.88;100.00;100251.88;4988799;28;20026;-85
2023/07/26 02:59:22;;;;;;;17.17;4.03;;;;;;;12.03;100.00;100258.09;5008480;28;20089;-86
2023/07/26 03:01:47;;;;;;;10.23;3.47;;;;;;;11.99;100.00;100242.59;4980854;28;20158;-85
2023/07/26 03:04:13;;;;;;;12.63;3.63;;;;;;;11.90;100.00;100238.34;4996508;28;20037;-85
2023/07/26 03:06:40;;;;;;;8.07;2.43;;;;;;;11.90;100.00;100244.50;4978863;28;20752;-83
2023/07/26 03:09:06;;;;;;;7.90;3.00;;;;;;;11.88;100.00;100245.72;4986593;28;20026;-86
2023/07/26 03:11:31;;;;;;;7.80;3.13;;;;;;;11.77;100.00;100238.94;4979227;28;20071;-86
2023/07/26 03:13:56;;;;;;;7.07;2.87;;;;;;;11.78;100.00;100244.09;4977865;28;20497;-85
2023/07/26 03:16:22;;;;;;;10.30;3.57;;;;;;;11.71;100.00;100247.69;5010856;28;20118;-85
2023/07/26 03:18:47;;;;;;;11.53;3.60;;;;;;;11.68;100.00;100246.19;4994849;28;20109;-86
2023/07/26 03:21:13;;;;;;;5.93;3.07;;;;;;;11.74;100.00;100256.16;5011006;28;20202;-86
2023/07/26 03:23:38;;;;;;;13.90;3.53;;;;;;;11.66;100.00;100242.03;4978404;28;20045;-84
2023/07/26 03:26:03;;;;;;;7.00;3.53;;;;;;;11.62;100.00;100252.28;4996129;28;20030;-84
2023/07/26 03:28:29;;;;;;;13.93;3.80;;;;;;;11.66;100.00;100264.28;4978919;28;20432;-84
2023/07/26 03:30:54;;;;;;;12.53;3.27;;;;;;;11.66;100.00;100258.94;5011048;28;20030;-84
2023/07/26 03:33:20;;;;;;;11.20;4.13;;;;;;;11.66;100.00;100261.63;4978601;28;20090;-85
2023/07/26 03:35:45;;;;;;;7.23;3.43;;;;;;;11.65;100.00;100275.97;4996197;28;20022;-85
2023/07/26 03:38:10;;;;;;;11.70;3.80;;;;;;;11.67;100.00;100268.59;5010675;28;20034;-86
2023/07/26 03:40:36;;;;;;;13.90;3.27;;;;;;;11.75;100.00;100265.88;4985788;28;20025;-85
2023/07/26 03:43:01;;;;;;;11.53;3.47;;;;;;;11.78;100.00;100283.41;5018139;28;20076;-85
2023/07/26 03:45:28;;;;;;;14.60;3.92;;;;;;;11.80;100.00;100282.19;4990212;28;20026;-83
2023/07/26 03:47:53;;;;;;;12.87;3.60;;;;;;;11.78;100.00;100278.03;5010158;28;20125;-84
2023/07/26 03:50:20;;;;;;;10.60;4.13;;;;;;;11.70;100.00;100273.59;5004803;28;20029;-85
2023/07/26 03:52:46;;;;;;;7.55;3.80;;;;;;;11.77;100.00;100277.19;4994064;28;20073;-85
2023/07/26 03:55:11;;;;;;;9.17;4.07;;;;;;;11.87;100.00;100276.09;4995854;28;20022;-85
2023/07/26 03:57:39;;;;;;;13.27;4.47;;;;;;;11.88;100.00;100286.66;4995524;28;20291;-85
2023/07/26 04:00:06;;;;;;;12.95;4.40;;;;;;;11.93;100.00;100283.44;4975452;28;20030;-85
2023/07/26 04:02:37;;;;;;;15.77;5.40;;;;;;;12.01;100.00;100286.88;5009084;28;20572;-86
2023/07/26 04:05:03;;;;;;;12.05;4.50;;;;;;;11.95;100.00;100278.75;4999727;28;20034;-86
2023/07/26 04:07:29;;;;;;;15.50;4.47;;;;;;;12.03;100.00;100284.00;4991564;28;20415;-83
2023/07/26 04:09:54;;;;;;;7.97;4.30;;;;;;;12.12;100.00;100293.59;5025593;28;20563;-85
2023/07/26 04:12:19;;;;;;;12.07;4.53;;;;;;;12.07;100.00;100289.81;5011088;28;20109;-85
2023/07/26 04:14:45;;;;;;;7.30;3.13;;;;;;;12.13;100.00;100297.97;5027579;28;20066;-84
2023/07/26 04:17:10;;;;;;;11.03;3.33;;;;;;;12.20;100.00;100301.56;5010591;28;20030;-85
2023/07/26 04:19:35;;;;;;;11.07;4.23;;;;;;;12.24;100.00;100300.19;5010818;28;20044;-85
2023/07/26 04:22:01;;;;;;;14.03;4.50;;;;;;;12.07;100.00;100287.97;5025139;28;20068;-84
2023/07/26 04:24:27;;;;;;;12.75;3.90;;;;;;;12.13;100.00;100297.97;5007337;28;20039;-85
2023/07/26 04:26:55;;;;;;;12.50;4.50;;;;;;;12.11;100.00;100294.63;4999711;28;20026;-86
2023/07/26 04:29:20;;;;;;;11.55;4.50;;;;;;;12.25;100.00;100307.19;5007444;28;20062;-85
2023/07/26 04:31:46;;;;;;;10.07;5.03;;;;;;;12.30;100.00;100305.81;4975367;28;20022;-84
2023/07/26 04:34:14;;;;;;;9.20;3.83;;;;;;;12.27;100.00;100300.81;4984760;28;20026;-86
2023/07/26 04:36:41;;;;;;;12.65;4.53;;;;;;;12.33;100.00;100292.03;4974606;28;20038;-85
2023/07/26 04:39:06;;;;;;;;;;;;;;;12.39;100.00;100302.03;4991463;28;20041;-85
2023/07/26 04:41:31;;;;;;;6.00;3.55;;;;;;;12.39;100.00;100289.47;4998770;28;19909;-85
2023/07/26 04:43:57;;;;;;;9.70;4.33;;;;;;;12.59;100.00;100287.03;4984354;28;20102;-85
2023/07/26 04:46:22;;;;;;;8.30;4.00;;;;;;;12.52;100.00;100275.41;4974944;28;20223;-85
2023/07/26 04:48:47;;;;;;;8.63;3.17;;;;;;;12.57;100.00;100278.38;4992846;28;20038;-85
2023/07/26 04:51:13;;;;;;;11.57;3.53;;;;;;;12.52;100.00;100263.88;4998296;28;20125;-85
2023/07/26 04:53:38;;;;;;;9.13;3.80;;;;;;;12.66;100.00;100265.69;5006877;28;20068;-85
2023/07/26 04:56:04;;;;;;;6.57;2.97;;;;;;;12.75;100.00;100272.59;4985591;28;20045;-83
2023/07/26 04:58:29;;;;;;;10.60;3.25;;;;;;;12.89;100.00;100261.00;4996557;28;20117;-84
2023/07/26 05:00:54;;;;;;;11.87;3.03;;;;;;;13.07;100.00;100263.28;4992114;28;20041;-85
2023/07/26 05:03:20;;;;;;;11.23;3.90;;;;;;;13.15;100.00;100264.16;4992965;28;20096;-85
2023/07/26 05:08:38;;;;;;;7.53;3.05;;;;;;;13.38;100.00;100262.16;4944320;28;20522;-84
2023/07/26 05:11:05;;;;;;;8.93;3.57;;;;;;;13.45;100.00;100260.34;4952981;28;20119;-84
2023/07/26 05:13:30;;;;;;;;;;;;;;;13.66;100.00;100247.94;4944288;28;20481;-86
2023/07/26 05:15:55;;;;;;;7.57;2.50;;;;;;;13.75;100.00;100237.91;4947033;28;19910;-85
2023/07/26 05:18:21;;;;;;;6.23;2.70;;;;;;;13.76;100.00;100223.44;4932616;28;20077;-84
2023/07/26 05:20:50;;;;;;;7.33;2.83;;;;;;;13.75;100.00;100217.28;4954337;28;20035;-84
2023/07/26 05:23:16;;;;;;;6.45;2.88;;;;;;;14.10;100.00;100217.28;4942810;29;20126;-85
2023/07/26 05:25:41;;;;;;;5.55;2.67;;;;;;;14.09;100.00;100196.81;4917069;29;20083;-85
2023/07/26 05:28:07;;;;;;;8.17;2.53;;;;;;;14.45;100.00;100190.38;4955739;28;20038;-85
2023/07/26 05:30:37;;;;;;;9.52;2.92;;;;;;;15.22;100.00;100172.97;4955384;28;20026;-85
2023/07/26 05:33:02;;;;;;;6.18;2.30;;;;;;;15.93;100.00;100133.75;4954880;28;20043;-84
2023/07/26 05:35:28;;;;;;;5.50;2.67;;;;;;;16.64;100.00;100038.44;4955379;28;20026;-85
2023/07/26 05:37:53;;;;;;;6.00;2.40;;;;;;;17.34;100.00;99951.91;4945973;28;20069;-85
2023/07/26 05:42:49;;;;;;;10.13;2.72;;;;;;;17.68;100.00;99799.28;5006403;28;20124;-75
2023/07/26 05:45:15;;;;;;;4.07;1.90;;;;;;;17.89;100.00;99727.72;5008883;28;20549;-74
2023/07/26 05:47:40;;;;;;;6.87;2.40;;;;;;;17.46;100.00;99588.53;4989814;28;20031;-74
2023/07/26 05:50:06;;;;;;;5.90;2.37;;;;;;;17.24;100.00;99661.13;5003933;28;20022;-74
2023/07/26 05:52:32;;;;;;;8.23;2.45;;;;;;;17.77;100.00;99702.59;4986949;28;20046;-74
2023/07/26 05:54:57;;;;;;;6.95;2.15;;;;;;;18.34;100.00;99656.84;4986718;28;20033;-74
2023/07/26 05:57:23;;;;;;;5.30;1.83;;;;;;;19.00;100.00;99477.94;4986653;28;20125;-75
2023/07/26 05:59:48;;;;;;;8.27;2.10;;;;;;;19.61;100.00;99402.13;5002991;28;20289;-74
2023/07/26 06:02:14;;;;;;;5.27;1.67;;;;;;;19.27;100.00;99164.19;4986453;28;20038;-74
2023/07/26 06:04:39;;;;;;;7.93;2.15;;;;;;;19.39;100.00;99221.66;5034278;22;20041;-73
2023/07/26 06:07:05;;;;;;;7.70;2.25;;;;;;;19.25;100.00;99211.53;5056661;28;20036;-73
2023/07/26 06:09:30;;;;;;;7.45;2.53;;;;;;;19.25;100.00;99281.88;5050731;28;20362;-72
2023/07/26 06:11:55;;;;;;;6.53;1.57;;;;;;;20.28;100.00;99335.03;5029126;28;20576;-76
2023/07/26 06:14:21;;;;;;;6.50;2.67;;;;;;;19.87;100.00;99069.31;5056244;28;20329;-73
2023/07/26 06:16:47;;;;;;;7.80;2.70;;;;;;;20.53;100.00;99234.84;5050316;28;20087;-73
2023/07/26 06:19:12;;;;;;;8.17;2.57;;;;;;;18.74;100.00;99226.13;5034276;28;20494;-73
2023/07/26 06:21:38;;;;;;;4.07;1.90;;;;;;;18.16;100.00;99240.25;5054419;28;20040;-78
2023/07/26 06:24:03;;;;;;;5.90;1.90;;;;;;;18.19;100.00;99204.63;5030206;28;20027;-77
2023/07/26 06:26:29;;;;;;;3.63;1.85;;;;;;;18.62;100.00;99433.56;5050163;28;20295;-73
2023/07/26 06:28:54;;;;;;;3.85;1.92;;;;;;;18.60;100.00;99370.00;5057194;28;20071;-75
2023/07/26 06:31:20;;;;;;;9.10;2.47;;;;;;;18.68;100.00;99434.44;5032826;28;20102;-73
2023/07/26 06:33:48;;;;;;;5.93;1.97;;;;;;;18.39;100.00;99412.94;5028430;28;20048;-73
2023/07/26 06:36:13;;;;;;;4.50;1.90;;;;;;;18.55;100.00;99311.28;5054440;28;20040;-76
2023/07/26 06:38:38;;;;;;;7.30;3.03;;;;;;;18.93;100.00;99294.22;5028539;28;20027;-75
2023/07/26 06:41:04;;;;;;;3.13;1.60;;;;;;;19.02;100.00;99312.72;5030528;28;20069;-73
2023/07/26 06:43:30;;;;;;;7.65;1.83;;;;;;;18.98;100.00;99218.56;5044844;28;20036;-73
2023/07/26 06:45:55;;;;;;;9.35;1.75;;;;;;;19.98;100.00;99478.09;5029945;28;20132;-73
2023/07/26 06:48:20;;;;;;;6.83;2.03;;;;;;;20.65;100.00;99235.50;5048410;28;20128;-74
2023/07/26 06:50:46;;;;;;;4.78;1.35;;;;;;;20.99;96.52;99174.56;5059789;28;20132;-77
2023/07/26 06:53:11;;;;;;;3.13;1.13;;;;;;;19.93;96.68;99042.00;5027965;28;20025;-73
2023/07/26 06:55:38;;;;;;;6.03;1.63;;;;;;;19.02;100.00;99161.28;5058049;28;20078;-75
2023/07/26 06:58:04;;;;;;;7.45;1.63;;;;;;;19.87;97.92;99248.03;5033586;28;20029;-73
2023/07/26 07:00:30;;;;;;;9.57;1.77;;;;;;;18.21;94.49;98724.44;5049887;28;20106;-72
2023/07/26 07:03:00;;;;;;;6.97;1.90;;;;;;;17.59;100.00;99117.94;5028939;28;20482;-74
2023/07/26 07:05:27;;;;;;;8.68;2.15;;;;;;;18.65;100.00;99634.97;5038900;28;20349;-73
2023/07/26 07:07:52;;;;;;;4.45;1.60;;;;;;;19.30;98.91;99261.06;5053816;28;20718;-73
2023/07/26 07:10:18;;;;;;;4.30;1.97;;;;;;;19.36;99.22;99343.97;5028346;28;20041;-78
2023/07/26 07:12:44;;;;;;;4.45;1.40;;;;;;;20.58;96.89;99441.00;5045241;28;20028;-73
2023/07/26 07:15:10;;;;;;;6.70;1.60;;;;;;;19.59;97.12;99258.09;5055454;28;20394;-74
2023/07/26 07:17:35;;;;;;;4.65;2.08;;;;;;;20.09;94.38;99232.50;5062111;28;20028;-76
2023/07/26 07:20:01;;;;;;;5.27;1.57;;;;;;;20.67;94.27;99381.63;5022224;28;20267;-73
2023/07/26 07:22:27;;;;;;;7.88;2.20;;;;;;;21.36;88.78;99195.22;5027808;28;20052;-74
2023/07/26 07:24:53;;;;;;;7.28;1.55;;;;;;;19.78;88.85;98866.75;5044336;28;20044;-72
2023/07/26 07:27:19;;;;;;;5.45;2.45;;;;;;;18.86;91.67;98952.13;5054139;28;20028;-77
2023/07/26 07:29:45;;;;;;;8.05;2.35;;;;;;;19.42;94.46;99306.13;5027884;28;20060;-72
2023/07/26 07:32:10;;;;;;;5.90;1.50;;;;;;;19.27;93.26;99147.97;5049083;28;20474;-73
2023/07/26 07:34:35;;;;;;;6.00;1.67;;;;;;;18.62;96.72;99221.94;5007978;28;20029;-74
2023/07/26 07:37:01;;;;;;;8.93;1.30;;;;;;;18.52;98.99;99353.16;5033320;28;20035;-72
2023/07/26 07:39:26;;;;;;;4.03;1.67;;;;;;;17.65;99.62;99170.94;5060992;28;20162;-74
2023/07/26 07:41:51;;;;;;;5.50;2.37;;;;;;;18.70;96.51;99314.19;5038781;28;20033;-75
2023/07/26 07:44:17;;;;;;;5.93;1.90;;;;;;;19.86;93.18;99368.28;5021151;28;20028;-73
2023/07/26 07:46:44;;;;;;;5.50;1.83;;;;;;;20.70;90.28;99332.31;5031239;28;20354;-76
2023/07/26 07:49:10;;;;;;;5.35;1.30;;;;;;;20.47;84.89;98896.31;5050736;28;20036;-73
2023/07/26 07:51:35;;;;;;;17.33;3.08;;;;;;;19.80;86.25;98913.31;5027312;28;20028;-72
2023/07/26 07:54:00;;;;;;;7.00;1.67;;;;;;;20.49;83.66;98916.63;5052873;28;20025;-72
2023/07/26 07:56:25;;;;;;;5.60;1.83;;;;;;;20.93;82.90;98981.16;5054563;28;20557;-76
2023/07/26 07:58:51;;;;;;;5.43;1.43;;;;;;;20.70;80.16;98695.13;5053752;28;20032;-73
2023/07/26 08:01:16;;;;;;;5.33;1.73;;;;;;;21.09;78.37;98697.03;5056606;28;20033;-73
2023/07/26 08:03:42;;;;;;;6.03;1.40;;;;;;;20.97;76.91;98571.81;5049172;28;20083;-73
2023/07/26 08:06:09;;;;;;;6.97;1.73;;;;;;;20.53;76.44;98510.31;5048397;28;20040;-73
2023/07/26 08:08:34;;;;;;;4.60;1.30;;;;;;;20.31;78.70;98602.84;5027101;28;20044;-74
2023/07/26 08:11:02;;;;;;;4.60;1.97;;;;;;;21.02;78.67;98872.88;5050311;28;20188;-73
2023/07/26 08:13:27;;;;;;;4.38;1.50;;;;;;;21.10;78.91;98879.66;5048397;28;20029;-74
2023/07/26 08:15:56;;;;;;;9.30;1.77;;;;;;;19.82;78.85;98555.66;5027896;28;20029;-73
2023/07/26 08:18:21;;;;;;;5.28;1.50;;;;;;;21.00;78.63;98959.97;5048833;28;20379;-73
2023/07/26 08:20:47;;;;;;;3.57;1.50;;;;;;;21.18;76.04;98717.06;5043790;28;20104;-73
2023/07/26 08:23:12;;;;;;;3.72;1.15;;;;;;;19.68;75.77;98338.06;5035709;28;20075;-73
2023/07/26 08:25:38;;;;;;;4.97;1.60;;;;;;;18.59;80.18;98506.28;5043893;28;20036;-73
2023/07/26 08:28:03;;;;;;;3.33;2.00;;;;;;;18.21;84.15;98813.56;5028457;28;20447;-73
2023/07/26 08:30:29;;;;;;;8.23;2.13;;;;;;;19.44;83.18;99027.94;5010401;28;20283;-73
2023/07/26 08:32:54;;;;;;;6.47;1.73;;;;;;;20.63;81.89;99224.09;5048624;28;20044;-73
2023/07/26 08:35:19;;;;;;;11.40;2.17;;;;;;;21.12;77.98;98980.56;5048565;28;20017;-73
2023/07/26 08:37:45;;;;;;;5.97;1.33;;;;;;;21.25;74.88;98686.91;5042953;28;20037;-73
2023/07/26 08:40:11;;;;;;;1.53;1.10;;;;;;;20.52;74.19;98447.16;5049550;28;20107;-73
2023/07/26 08:42:37;;;;;;;4.93;1.60;;;;;;;19.40;77.55;98568.44;5047761;28;20025;-73
2023/07/26 08:45:05;;;;;;;;;;;;;;;18.77;82.48;98879.59;5033399;28;20035;-73
2023/07/26 08:47:32;;;;;;;5.32;1.38;;;;;;;16.78;88.16;98770.59;5059166;28;19917;-73
2023/07/26 08:49:58;;;;;;;8.23;2.85;;;;;;;14.80;100.00;99773.78;5050596;28;20021;-74
2023/07/26 08:52:24;;;;;;;9.07;1.80;;;;;;;13.13;100.00;100293.00;5028465;28;20834;-78
2023/07/26 08:54:50;;;;;;;5.80;1.58;;;;;;;12.65;100.00;100476.44;5051528;28;20704;-78
2023/07/26 08:57:18;;;;;;;5.75;1.38;;;;;;;12.50;100.00;100545.19;5057643;28;20067;-78
2023/07/26 08:59:43;;;;;;;6.72;1.30;;;;;;;12.16;100.00;100551.81;5033697;28;20036;-77
2023/07/26 09:02:11;;;;;;;2.22;1.30;;;;;;;12.44;100.00;100594.94;5034116;28;20044;-77
2023/07/26 09:04:36;;;;;;;2.75;1.15;;;;;;;12.65;100.00;100582.75;5058343;28;20433;-78
2023/07/26 09:07:03;;;;;;;4.57;1.42;;;;;;;12.95;100.00;100578.31;5034497;28;20032;-78
2023/07/26 09:09:31;;;;;;;4.78;1.45;;;;;;;13.20;100.00;100583.41;5056896;28;20035;-78
2023/07/26 09:11:57;;;;;;;4.63;1.83;;;;;;;13.59;100.00;100568.94;5020787;28;20123;-78
2023/07/26 09:14:27;;;;;;;8.50;1.75;;;;;;;13.66;100.00;100498.25;5038135;28;20830;-78
2023/07/26 09:17:00;;;;;;;5.30;1.95;;;;;;;14.10;100.00;100515.22;5034656;28;20497;-79
2023/07/26 09:19:33;;;;;;;4.38;1.58;;;;;;;13.94;100.00;100428.56;5017446;28;20029;-78
2023/07/26 09:22:00;;;;;;;6.32;1.40;;;;;;;14.42;100.00;100518.41;5036677;28;20063;-78
2023/07/26 09:24:33;;;;;;;3.10;1.60;;;;;;;14.20;100.00;100499.63;5053014;28;20385;-79
2023/07/26 09:27:04;;;;;;;3.08;2.25;;;;;;;15.57;100.00;100558.31;5032704;28;20043;-78
2023/07/26 09:29:29;;;;;;;4.95;1.65;;;;;;;16.46;100.00;100486.47;5025255;28;20200;-79
2023/07/26 09:31:54;;;;;;;5.87;1.57;;;;;;;17.69;100.00;100481.19;5032432;28;20033;-80
2023/07/26 09:34:20;;;;;;;7.87;1.57;;;;;;;18.48;100.00;100346.56;5034831;28;20071;-79
2023/07/26 09:36:51;;;;;;;2.22;1.10;;;;;;;19.33;100.00;100288.91;5023906;28;20074;-79
2023/07/26 09:39:21;;;;;;;4.35;1.17;;;;;;;19.59;100.00;99997.16;5027867;28;20125;-79
2023/07/26 09:41:48;;;;;;;2.72;1.05;;;;;;;20.09;100.00;99880.00;5035551;28;20032;-79
2023/07/26 09:44:20;;;;;;;;;;;;;;;18.04;100.00;99651.63;5040295;28;20031;-78
2023/07/26 09:46:47;;;;;;;2.15;1.17;;;;;;;17.34;100.00;99670.53;5020752;28;19917;-79
2023/07/26 09:49:13;;;;;;;3.15;1.20;;;;;;;16.61;100.00;99691.28;5060957;28;20101;-78
2023/07/26 09:51:40;;;;;;;6.10;1.63;;;;;;;16.27;100.00;100046.38;5036002;28;20025;-78
2023/07/26 09:54:07;;;;;;;2.28;1.00;;;;;;;15.77;100.00;100005.88;5035263;28;20143;-79
2023/07/26 09:56:33;;;;;;;1.85;0.93;;;;;;;15.93;100.00;100163.38;5061304;28;20035;-78
2023/07/26 09:59:00;;;;;;;2.78;1.38;;;;;;;15.67;100.00;100183.06;5040318;28;20025;-79
2023/07/26 10:01:27;;;;;;;4.40;1.23;;;;;;;15.52;100.00;100192.19;5032547;28;20045;-79
2023/07/26 10:03:55;;;;;;;3.42;1.35;;;;;;;14.64;100.00;100157.38;5027838;28;20116;-78
2023/07/26 10:06:23;;;;;;;2.22;1.15;;;;;;;14.33;100.00;100263.44;5038383;28;20488;-79
2023/07/26 10:08:49;;;;;;;2.53;1.60;;;;;;;13.91;100.00;100249.16;5018183;28;20040;-79
2023/07/26 10:11:15;;;;;;;;;;;;;;;13.88;100.00;100308.59;5024894;28;20024;-79
2023/07/26 10:13:42;;;;;;;2.17;1.85;;;;;;;14.06;100.00;100371.69;5034097;28;20285;-79
2023/07/26 10:16:08;;;;;;;4.43;1.25;;;;;;;14.19;100.00;100405.84;5035429;28;20037;-78
2023/07/26 10:18:34;;;;;;;5.18;1.45;;;;;;;14.31;100.00;100412.38;5040171;28;20679;-79
2023/07/26 10:21:05;;;;;;;3.47;1.10;;;;;;;14.45;100.00;100426.72;5059127;28;20047;-78
2023/07/26 10:23:31;;;;;;;2.65;0.90;;;;;;;14.83;100.00;100431.75;5037472;28;20397;-78
2023/07/26 10:26:00;;;;;;;5.57;0.80;;;;;;;14.98;100.00;100414.47;5018999;28;20124;-78
2023/07/26 10:28:26;;;;;;;2.80;1.50;;;;;;;14.84;100.00;100367.03;5046173;28;20461;-78
2023/07/26 10:30:53;;;;;;;3.63;1.00;;;;;;;14.65;100.00;100330.97;5034790;28;20532;-77
2023/07/26 10:33:18;;;;;;;1.40;0.88;;;;;;;15.05;100.00;100288.13;5017119;28;20155;-78
2023/07/26 10:35:45;;;;;;;1.93;1.07;;;;;;;16.32;100.00;100261.22;5013659;28;20048;-76
2023/07/26 10:38:15;;;;;;;2.90;1.08;;;;;;;17.88;100.00;100201.31;5028501;28;20284;-77
2023/07/26 10:40:41;;;;;;;6.22;1.95;;;;;;;17.93;100.00;99890.09;5043899;28;20053;-77
2023/07/26 10:43:36;;;;;;;2.95;1.38;;;;;;;18.65;100.00;100156.72;5054645;28;20060;-77
2023/07/26 10:46:08;;;;;;;6.80;1.35;;;;;;;17.79;100.00;99772.53;5048486;28;20041;-77
2023/07/26 10:48:38;;;;;;;4.00;1.52;;;;;;;18.80;100.00;99770.50;5029261;28;20041;-76
2023/07/26 10:51:22;;;;;;;3.90;1.00;;;;;;;19.16;100.00;99504.13;5029091;28;20050;-77
2023/07/26 10:53:48;;;;;;;5.03;1.20;;;;;;;19.55;100.00;99660.28;5028711;28;20108;-76
2023/07/26 10:56:23;;;;;;;3.35;1.10;;;;;;;20.39;100.00;99553.53;5045879;28;20048;-77
2023/07/26 10:58:52;;;;;;;1.90;0.98;;;;;;;19.53;100.00;99448.59;5029387;28;20185;-76
2023/07/26 11:01:37;;;;;;;2.55;1.10;;;;;;;18.67;100.00;99333.63;5019470;28;20020;-77
2023/07/26 11:04:10;;;;;;;2.95;1.15;;;;;;;17.97;100.00;99515.94;5048330;28;20036;-77
2023/07/26 11:07:04;;;;;;;3.33;1.00;;;;;;;17.67;100.00;99777.91;5050894;28;20083;-77
2023/07/26 11:09:33;;;;;;;3.15;1.10;;;;;;;17.34;100.00;100043.63;5017016;28;20039;-77
2023/07/26 11:12:09;;;;;;;3.38;1.20;;;;;;;17.27;100.00;100243.34;5045526;28;20033;-76
2023/07/26 11:14:35;;;;;;;4.65;1.30;;;;;;;16.63;100.00;100139.22;5052226;28;20118;-77
2023/07/26 11:17:09;;;;;;;4.35;1.20;;;;;;;17.93;100.00;100203.34;5037525;28;20115;-77
2023/07/26 11:19:49;;;;;;;5.88;1.30;;;;;;;19.55;100.00;100096.16;5046815;28;20036;-77
2023/07/26 11:22:15;;;;;;;5.47;1.42;;;;;;;20.48;100.00;100025.63;5021514;28;20120;-77
2023/07/26 11:24:40;;;;;;;3.22;1.35;;;;;;;21.05;100.00;99610.31;5028644;28;20025;-77